11.600 kWh

EHAM AMSTERDAM/SCHIPHOL NLD -3 m.
METAR EHAM 231625Z 27007KT 220V320 CAVOK 28/16 Q1016 NOSIG

EHAM AMSTERDAM/SCHIPHOL NLD -3 m.
TAF EHAM 231104Z 2312/2418 30008KT CAVOK
BECMG 2318/2321 04005KT
BECMG 2321/2324 VRB03KT
PROB30 TEMPO 2402/2406 6000 MIFG
BECMG 2410/2413 30008KT